Courtland, MS

9:32 AM CDT on September 18, 2014 (GMT -0500)
Greenwood-Leflore | Change Station
CLOSE
Current Station
Airport
Location: Greenwood,
Elevation: 154 ft
Nearby Weather Stations

Elev 154 ft 33.49 °N, 90.08 °W | Updated 39 minutes ago

Partly Cloudy
Partly Cloudy
76 °F
Feels Like 76 °F
N
6
Wind Variable Wind from SSE

Today
High -- | Low -- °F
--% Chance of Precip.
Yesterday
High -- | Low -- °F
Precip. -- in
6:45 AM 7:02 PM
Waning Crescent, 27% visible
Pressure 29.94 in
Visibility 10.0 miles
Clouds Few 6500 ft
Dew Point 67 °F
Humidity 74%
Rainfall 0.00 in
Snow Depth Not available.
UV 2 out of 12
Pollen 8.50 out of 12
Air Quality Not available.
Flu Activity Not available.
METAR KGWO 181353Z AUTO 16005KT 10SM FEW065 24/19 A2995 RMK AO2 SLP139 T02440194 TSNO

More Conditions Fewer Conditions

Pressure 29.94 in
Visibility 10.0 miles
Clouds Few 6500 ft
Dew Point 67 °F
Humidity 74%
Rainfall 0.00 in
Snow Depth Not available.
UV 2 out of 12
Pollen 8.50 out of 12
Air Quality Not available.
Flu Activity Not available.
METAR KGWO 181353Z AUTO 16005KT 10SM FEW065 24/19 A2995 RMK AO2 SLP139 T02440194 TSNO

More Conditions Fewer Conditions

10-Day Weather Forecast

Almanac

Astronomy

Sep. 18, 2014 Rise Set
Actual Time 6:45 AM CDT 7:02 PM CDT
Civil Twilight 6:20 AM CDT 7:27 PM CDT
Nautical Twilight 5:51 AM CDT 7:57 PM CDT
Astronomical Twilight 5:21 AM CDT 8:26 PM CDT
Moon 1:48 AM CDT 3:44 PM CDT
Length of Visible Light 13h 07m
Length of Day
12h 17m
Tomorrow will be 2m 7s shorter.
Waning Crescent, 27% of the Moon is Illuminated
Today
Waning Crescent
Sep 24
New
Oct 1
First Quarter
Oct 8
Full
Oct 15
Last Quarter

Today's Extremes

State Highs State Lows

Community

WunderPhotos

Upload Photos

1,754,355 photos uploaded!

Nearby

Snow Depth

Station Depth Elevation
No new snow has been reported.

Earthquake Activity

City Distance Mag. Time & Date
No recent earthquake activity has been reported nearby.
Minimum magnitude displayed is 2.5.

Coastal Water Temperatures

Place Temperature
No Stations Reporting

Nearby Weather Stations